sensor_id;sensor_type;location;lat;lon;timestamp;P1;durP1;ratioP1;P2;durP2;ratioP2
75007;SDS011;63554;48.940;12.050;2023-07-13T00:03:50;5.05;;;3.00;;
75007;SDS011;63554;48.940;12.050;2023-07-13T00:07:53;4.63;;;2.92;;
75007;SDS011;63554;48.940;12.050;2023-07-13T00:11:56;4.15;;;2.95;;
75007;SDS011;63554;48.940;12.050;2023-07-13T00:16:01;6.88;;;2.60;;
75007;SDS011;63554;48.940;12.050;2023-07-13T00:20:04;3.92;;;2.45;;
75007;SDS011;63554;48.940;12.050;2023-07-13T00:24:10;4.45;;;2.70;;
75007;SDS011;63554;48.940;12.050;2023-07-13T00:28:18;4.20;;;1.90;;
75007;SDS011;63554;48.940;12.050;2023-07-13T00:32:22;6.35;;;2.25;;
75007;SDS011;63554;48.940;12.050;2023-07-13T00:36:26;4.20;;;2.30;;
75007;SDS011;63554;48.940;12.050;2023-07-13T00:40:29;4.20;;;2.10;;
75007;SDS011;63554;48.940;12.050;2023-07-13T00:44:31;4.47;;;2.00;;
75007;SDS011;63554;48.940;12.050;2023-07-13T00:48:36;4.07;;;2.38;;
75007;SDS011;63554;48.940;12.050;2023-07-13T00:56:44;3.88;;;2.20;;
75007;SDS011;63554;48.940;12.050;2023-07-13T01:00:48;2.60;;;1.63;;
75007;SDS011;63554;48.940;12.050;2023-07-13T01:04:54;3.58;;;1.63;;
75007;SDS011;63554;48.940;12.050;2023-07-13T01:08:57;2.97;;;1.83;;
75007;SDS011;63554;48.940;12.050;2023-07-13T01:13:01;3.67;;;1.90;;
75007;SDS011;63554;48.940;12.050;2023-07-13T01:17:04;3.33;;;1.77;;
75007;SDS011;63554;48.940;12.050;2023-07-13T01:21:08;2.90;;;1.65;;
75007;SDS011;63554;48.940;12.050;2023-07-13T01:25:11;4.00;;;1.90;;
75007;SDS011;63554;48.940;12.050;2023-07-13T01:29:14;4.07;;;1.98;;
75007;SDS011;63554;48.940;12.050;2023-07-13T01:33:17;2.33;;;1.73;;
75007;SDS011;63554;48.940;12.050;2023-07-13T01:37:21;4.30;;;2.45;;
75007;SDS011;63554;48.940;12.050;2023-07-13T01:41:24;3.45;;;2.13;;
75007;SDS011;63554;48.940;12.050;2023-07-13T01:45:27;3.47;;;2.40;;
75007;SDS011;63554;48.940;12.050;2023-07-13T01:49:33;5.25;;;2.75;;
75007;SDS011;63554;48.940;12.050;2023-07-13T01:53:37;5.78;;;3.47;;
75007;SDS011;63554;48.940;12.050;2023-07-13T01:57:40;5.22;;;3.10;;
75007;SDS011;63554;48.940;12.050;2023-07-13T02:01:42;7.35;;;2.92;;
75007;SDS011;63554;48.940;12.050;2023-07-13T02:05:45;4.07;;;2.50;;
75007;SDS011;63554;48.940;12.050;2023-07-13T02:09:49;4.70;;;2.70;;
75007;SDS011;63554;48.940;12.050;2023-07-13T02:13:52;4.60;;;2.80;;
75007;SDS011;63554;48.940;12.050;2023-07-13T02:17:55;4.35;;;2.72;;
75007;SDS011;63554;48.940;12.050;2023-07-13T02:21:58;4.63;;;2.45;;
75007;SDS011;63554;48.940;12.050;2023-07-13T02:26:03;3.65;;;2.58;;
75007;SDS011;63554;48.940;12.050;2023-07-13T02:30:06;6.93;;;2.90;;
75007;SDS011;63554;48.940;12.050;2023-07-13T02:34:10;7.40;;;3.20;;
75007;SDS011;63554;48.940;12.050;2023-07-13T02:38:12;4.05;;;2.50;;
75007;SDS011;63554;48.940;12.050;2023-07-13T02:42:16;4.88;;;2.65;;
75007;SDS011;63554;48.940;12.050;2023-07-13T02:46:19;3.55;;;2.50;;
75007;SDS011;63554;48.940;12.050;2023-07-13T02:50:22;4.05;;;2.38;;
75007;SDS011;63554;48.940;12.050;2023-07-13T02:54:24;4.43;;;2.90;;
75007;SDS011;63554;48.940;12.050;2023-07-13T02:58:29;10.93;;;2.65;;
75007;SDS011;63554;48.940;12.050;2023-07-13T03:02:31;4.88;;;2.72;;
75007;SDS011;63554;48.940;12.050;2023-07-13T03:06:34;7.10;;;2.45;;
75007;SDS011;63554;48.940;12.050;2023-07-13T03:10:37;3.95;;;3.13;;
75007;SDS011;63554;48.940;12.050;2023-07-13T03:14:42;6.10;;;2.88;;
75007;SDS011;63554;48.940;12.050;2023-07-13T03:18:45;5.05;;;3.25;;
75007;SDS011;63554;48.940;12.050;2023-07-13T03:22:49;6.00;;;2.92;;
75007;SDS011;63554;48.940;12.050;2023-07-13T03:26:51;3.75;;;2.60;;
75007;SDS011;63554;48.940;12.050;2023-07-13T03:31:00;4.93;;;2.80;;
75007;SDS011;63554;48.940;12.050;2023-07-13T03:35:04;4.38;;;3.00;;
75007;SDS011;63554;48.940;12.050;2023-07-13T03:39:08;4.32;;;3.13;;
75007;SDS011;63554;48.940;12.050;2023-07-13T03:43:11;6.78;;;3.47;;
75007;SDS011;63554;48.940;12.050;2023-07-13T03:47:15;8.55;;;3.53;;
75007;SDS011;63554;48.940;12.050;2023-07-13T03:51:18;8.60;;;2.97;;
75007;SDS011;63554;48.940;12.050;2023-07-13T03:55:21;7.25;;;3.05;;
75007;SDS011;63554;48.940;12.050;2023-07-13T03:59:23;11.07;;;3.53;;
75007;SDS011;63554;48.940;12.050;2023-07-13T04:03:27;10.02;;;4.20;;
75007;SDS011;63554;48.940;12.050;2023-07-13T04:07:34;6.88;;;3.70;;
75007;SDS011;63554;48.940;12.050;2023-07-13T04:11:38;8.23;;;3.95;;
75007;SDS011;63554;48.940;12.050;2023-07-13T04:15:41;9.32;;;4.40;;
75007;SDS011;63554;48.940;12.050;2023-07-13T04:19:45;11.82;;;5.00;;
75007;SDS011;63554;48.940;12.050;2023-07-13T04:23:48;10.02;;;5.43;;
75007;SDS011;63554;48.940;12.050;2023-07-13T04:27:51;8.93;;;4.65;;
75007;SDS011;63554;48.940;12.050;2023-07-13T04:31:54;9.15;;;4.65;;
75007;SDS011;63554;48.940;12.050;2023-07-13T04:35:58;8.73;;;5.05;;
75007;SDS011;63554;48.940;12.050;2023-07-13T04:40:03;8.23;;;4.47;;
75007;SDS011;63554;48.940;12.050;2023-07-13T04:44:06;9.50;;;4.68;;
75007;SDS011;63554;48.940;12.050;2023-07-13T04:48:09;9.05;;;4.43;;
75007;SDS011;63554;48.940;12.050;2023-07-13T04:52:13;8.68;;;4.45;;
75007;SDS011;63554;48.940;12.050;2023-07-13T04:56:15;8.35;;;4.47;;
75007;SDS011;63554;48.940;12.050;2023-07-13T05:00:18;9.05;;;4.63;;
75007;SDS011;63554;48.940;12.050;2023-07-13T05:04:21;8.20;;;5.15;;
75007;SDS011;63554;48.940;12.050;2023-07-13T05:08:25;9.05;;;4.22;;
75007;SDS011;63554;48.940;12.050;2023-07-13T05:12:28;5.60;;;4.20;;
75007;SDS011;63554;48.940;12.050;2023-07-13T05:16:31;7.22;;;4.57;;
75007;SDS011;63554;48.940;12.050;2023-07-13T05:20:34;9.82;;;4.03;;
75007;SDS011;63554;48.940;12.050;2023-07-13T05:24:38;6.32;;;3.83;;
75007;SDS011;63554;48.940;12.050;2023-07-13T05:28:40;11.55;;;4.32;;
75007;SDS011;63554;48.940;12.050;2023-07-13T05:32:44;7.78;;;3.53;;
75007;SDS011;63554;48.940;12.050;2023-07-13T05:36:47;4.65;;;3.17;;
75007;SDS011;63554;48.940;12.050;2023-07-13T05:40:53;4.85;;;2.50;;
75007;SDS011;63554;48.940;12.050;2023-07-13T05:44:57;3.13;;;1.90;;
75007;SDS011;63554;48.940;12.050;2023-07-13T05:48:59;3.90;;;1.23;;
75007;SDS011;63554;48.940;12.050;2023-07-13T05:53:02;4.63;;;1.45;;
75007;SDS011;63554;48.940;12.050;2023-07-13T05:57:07;4.20;;;1.77;;
75007;SDS011;63554;48.940;12.050;2023-07-13T06:01:10;3.65;;;1.60;;
75007;SDS011;63554;48.940;12.050;2023-07-13T06:05:16;1.45;;;1.25;;
75007;SDS011;63554;48.940;12.050;2023-07-13T06:09:19;2.80;;;1.55;;
75007;SDS011;63554;48.940;12.050;2023-07-13T06:13:25;1.90;;;1.15;;
75007;SDS011;63554;48.940;12.050;2023-07-13T06:17:27;1.25;;;0.93;;
75007;SDS011;63554;48.940;12.050;2023-07-13T06:21:30;3.42;;;1.30;;
75007;SDS011;63554;48.940;12.050;2023-07-13T06:25:33;1.95;;;1.00;;
75007;SDS011;63554;48.940;12.050;2023-07-13T06:29:37;5.35;;;1.13;;
75007;SDS011;63554;48.940;12.050;2023-07-13T06:33:40;2.00;;;1.10;;
75007;SDS011;63554;48.940;12.050;2023-07-13T06:37:44;2.33;;;1.40;;
75007;SDS011;63554;48.940;12.050;2023-07-13T06:41:48;3.42;;;1.30;;
75007;SDS011;63554;48.940;12.050;2023-07-13T06:45:53;4.28;;;1.52;;
75007;SDS011;63554;48.940;12.050;2023-07-13T06:49:57;2.90;;;1.23;;
75007;SDS011;63554;48.940;12.050;2023-07-13T06:54:00;3.92;;;1.25;;
75007;SDS011;63554;48.940;12.050;2023-07-13T06:58:02;2.88;;;1.27;;
75007;SDS011;63554;48.940;12.050;2023-07-13T07:02:08;1.35;;;1.00;;
75007;SDS011;63554;48.940;12.050;2023-07-13T07:06:13;2.65;;;1.20;;
75007;SDS011;63554;48.940;12.050;2023-07-13T07:10:18;1.52;;;1.00;;
75007;SDS011;63554;48.940;12.050;2023-07-13T07:14:22;2.17;;;1.45;;
75007;SDS011;63554;48.940;12.050;2023-07-13T07:18:26;1.77;;;1.17;;
75007;SDS011;63554;48.940;12.050;2023-07-13T07:22:29;4.50;;;1.10;;
75007;SDS011;63554;48.940;12.050;2023-07-13T07:26:32;1.90;;;1.20;;
75007;SDS011;63554;48.940;12.050;2023-07-13T07:30:55;1.33;;;1.05;;
75007;SDS011;63554;48.940;12.050;2023-07-13T07:35:04;2.17;;;1.10;;
75007;SDS011;63554;48.940;12.050;2023-07-13T07:39:07;1.95;;;1.10;;
75007;SDS011;63554;48.940;12.050;2023-07-13T07:43:11;1.85;;;0.88;;
75007;SDS011;63554;48.940;12.050;2023-07-13T07:47:14;2.45;;;0.90;;
75007;SDS011;63554;48.940;12.050;2023-07-13T07:51:18;1.95;;;1.10;;
75007;SDS011;63554;48.940;12.050;2023-07-13T07:55:21;1.42;;;0.90;;
75007;SDS011;63554;48.940;12.050;2023-07-13T07:59:28;2.15;;;1.08;;
75007;SDS011;63554;48.940;12.050;2023-07-13T08:03:51;2.85;;;0.88;;
75007;SDS011;63554;48.940;12.050;2023-07-13T08:07:57;2.67;;;0.90;;
75007;SDS011;63554;48.940;12.050;2023-07-13T08:12:00;1.85;;;1.10;;
75007;SDS011;63554;48.940;12.050;2023-07-13T08:16:06;3.60;;;0.80;;
75007;SDS011;63554;48.940;12.050;2023-07-13T08:20:09;2.90;;;0.80;;
75007;SDS011;63554;48.940;12.050;2023-07-13T08:24:14;2.05;;;1.05;;
75007;SDS011;63554;48.940;12.050;2023-07-13T08:28:16;2.28;;;0.80;;
75007;SDS011;63554;48.940;12.050;2023-07-13T08:32:19;3.17;;;0.80;;
75007;SDS011;63554;48.940;12.050;2023-07-13T08:36:25;1.00;;;0.80;;
75007;SDS011;63554;48.940;12.050;2023-07-13T08:40:30;2.10;;;1.48;;
75007;SDS011;63554;48.940;12.050;2023-07-13T08:44:36;4.88;;;1.33;;
75007;SDS011;63554;48.940;12.050;2023-07-13T08:48:47;1.13;;;0.80;;
75007;SDS011;63554;48.940;12.050;2023-07-13T08:52:54;3.83;;;0.90;;
75007;SDS011;63554;48.940;12.050;2023-07-13T08:57:00;2.15;;;0.82;;
75007;SDS011;63554;48.940;12.050;2023-07-13T09:01:15;2.05;;;0.80;;
75007;SDS011;63554;48.940;12.050;2023-07-13T09:05:25;2.47;;;1.02;;
75007;SDS011;63554;48.940;12.050;2023-07-13T09:09:34;1.67;;;0.80;;
75007;SDS011;63554;48.940;12.050;2023-07-13T09:13:52;2.38;;;0.90;;
75007;SDS011;63554;48.940;12.050;2023-07-13T09:18:00;1.30;;;0.90;;
75007;SDS011;63554;48.940;12.050;2023-07-13T09:22:09;1.25;;;0.93;;
75007;SDS011;63554;48.940;12.050;2023-07-13T09:26:17;2.45;;;0.90;;
75007;SDS011;63554;48.940;12.050;2023-07-13T09:30:25;2.08;;;0.73;;
75007;SDS011;63554;48.940;12.050;2023-07-13T09:34:35;2.10;;;1.00;;
75007;SDS011;63554;48.940;12.050;2023-07-13T09:38:38;1.23;;;0.90;;
75007;SDS011;63554;48.940;12.050;2023-07-13T09:42:41;1.13;;;0.95;;
75007;SDS011;63554;48.940;12.050;2023-07-13T09:46:46;1.02;;;0.85;;
75007;SDS011;63554;48.940;12.050;2023-07-13T09:50:54;1.30;;;0.98;;
75007;SDS011;63554;48.940;12.050;2023-07-13T09:54:58;3.03;;;1.75;;
75007;SDS011;63554;48.940;12.050;2023-07-13T09:59:01;1.35;;;0.73;;
75007;SDS011;63554;48.940;12.050;2023-07-13T10:03:05;1.77;;;0.85;;
75007;SDS011;63554;48.940;12.050;2023-07-13T10:07:18;0.90;;;0.70;;
75007;SDS011;63554;48.940;12.050;2023-07-13T10:11:30;1.65;;;0.80;;
75007;SDS011;63554;48.940;12.050;2023-07-13T10:15:35;0.85;;;0.70;;
75007;SDS011;63554;48.940;12.050;2023-07-13T10:19:39;2.25;;;0.95;;
75007;SDS011;63554;48.940;12.050;2023-07-13T10:23:45;3.25;;;0.80;;
75007;SDS011;63554;48.940;12.050;2023-07-13T10:27:51;1.10;;;0.85;;
75007;SDS011;63554;48.940;12.050;2023-07-13T10:31:57;2.25;;;0.90;;
75007;SDS011;63554;48.940;12.050;2023-07-13T10:36:03;0.90;;;0.60;;
75007;SDS011;63554;48.940;12.050;2023-07-13T10:40:25;1.75;;;0.82;;
75007;SDS011;63554;48.940;12.050;2023-07-13T10:44:32;1.02;;;0.73;;
75007;SDS011;63554;48.940;12.050;2023-07-13T10:48:36;2.15;;;0.68;;
75007;SDS011;63554;48.940;12.050;2023-07-13T10:56:52;4.70;;;0.70;;
75007;SDS011;63554;48.940;12.050;2023-07-13T11:01:10;3.00;;;0.57;;
75007;SDS011;63554;48.940;12.050;2023-07-13T11:05:17;1.05;;;0.68;;
75007;SDS011;63554;48.940;12.050;2023-07-13T11:09:35;2.03;;;0.60;;
75007;SDS011;63554;48.940;12.050;2023-07-13T11:18:04;1.20;;;0.70;;
75007;SDS011;63554;48.940;12.050;2023-07-13T11:22:11;1.27;;;0.95;;
75007;SDS011;63554;48.940;12.050;2023-07-13T11:26:39;2.40;;;0.80;;
75007;SDS011;63554;48.940;12.050;2023-07-13T11:30:46;1.30;;;0.70;;
75007;SDS011;63554;48.940;12.050;2023-07-13T11:34:51;1.77;;;0.57;;
75007;SDS011;63554;48.940;12.050;2023-07-13T11:38:57;1.63;;;0.90;;
75007;SDS011;63554;48.940;12.050;2023-07-13T11:43:05;0.95;;;0.60;;
75007;SDS011;63554;48.940;12.050;2023-07-13T11:47:09;1.23;;;0.60;;
75007;SDS011;63554;48.940;12.050;2023-07-13T11:51:17;2.05;;;0.60;;
75007;SDS011;63554;48.940;12.050;2023-07-13T11:55:23;1.63;;;0.60;;
75007;SDS011;63554;48.940;12.050;2023-07-13T11:59:28;1.27;;;0.65;;
75007;SDS011;63554;48.940;12.050;2023-07-13T12:03:33;1.67;;;0.60;;
75007;SDS011;63554;48.940;12.050;2023-07-13T12:07:37;3.20;;;0.68;;
75007;SDS011;63554;48.940;12.050;2023-07-13T12:11:41;2.40;;;0.65;;
75007;SDS011;63554;48.940;12.050;2023-07-13T12:15:46;1.25;;;0.77;;
75007;SDS011;63554;48.940;12.050;2023-07-13T12:19:50;1.40;;;0.52;;
75007;SDS011;63554;48.940;12.050;2023-07-13T12:23:54;1.65;;;0.77;;
75007;SDS011;63554;48.940;12.050;2023-07-13T12:27:57;0.95;;;0.50;;
75007;SDS011;63554;48.940;12.050;2023-07-13T12:32:01;2.65;;;0.50;;
75007;SDS011;63554;48.940;12.050;2023-07-13T12:36:05;0.50;;;0.43;;
75007;SDS011;63554;48.940;12.050;2023-07-13T12:40:12;1.10;;;0.40;;
75007;SDS011;63554;48.940;12.050;2023-07-13T12:44:16;1.15;;;0.60;;
75007;SDS011;63554;48.940;12.050;2023-07-13T12:48:21;0.95;;;0.52;;
75007;SDS011;63554;48.940;12.050;2023-07-13T12:52:42;0.80;;;0.52;;
75007;SDS011;63554;48.940;12.050;2023-07-13T12:56:48;1.10;;;0.52;;
75007;SDS011;63554;48.940;12.050;2023-07-13T13:00:54;1.10;;;0.70;;
75007;SDS011;63554;48.940;12.050;2023-07-13T13:05:03;1.40;;;0.60;;
75007;SDS011;63554;48.940;12.050;2023-07-13T13:09:09;1.02;;;0.60;;
75007;SDS011;63554;48.940;12.050;2023-07-13T13:13:15;0.93;;;0.60;;
75007;SDS011;63554;48.940;12.050;2023-07-13T13:17:19;2.17;;;0.90;;
75007;SDS011;63554;48.940;12.050;2023-07-13T13:21:25;1.30;;;0.60;;
75007;SDS011;63554;48.940;12.050;2023-07-13T13:25:28;1.00;;;0.60;;
75007;SDS011;63554;48.940;12.050;2023-07-13T13:29:31;0.75;;;0.52;;
75007;SDS011;63554;48.940;12.050;2023-07-13T13:37:48;1.15;;;0.40;;
75007;SDS011;63554;48.940;12.050;2023-07-13T13:41:52;0.80;;;0.60;;
75007;SDS011;63554;48.940;12.050;2023-07-13T13:45:56;1.17;;;0.50;;
75007;SDS011;63554;48.940;12.050;2023-07-13T13:50:01;0.80;;;0.50;;
75007;SDS011;63554;48.940;12.050;2023-07-13T13:54:14;1.00;;;0.55;;
75007;SDS011;63554;48.940;12.050;2023-07-13T13:58:17;1.30;;;0.60;;
75007;SDS011;63554;48.940;12.050;2023-07-13T14:02:22;1.63;;;0.65;;
75007;SDS011;63554;48.940;12.050;2023-07-13T14:06:26;2.35;;;0.57;;
75007;SDS011;63554;48.940;12.050;2023-07-13T14:10:31;1.95;;;0.60;;
75007;SDS011;63554;48.940;12.050;2023-07-13T14:14:34;0.73;;;0.70;;
75007;SDS011;63554;48.940;12.050;2023-07-13T14:18:37;0.85;;;0.50;;
75007;SDS011;63554;48.940;12.050;2023-07-13T14:22:40;0.93;;;0.60;;
75007;SDS011;63554;48.940;12.050;2023-07-13T14:26:47;0.52;;;0.38;;
75007;SDS011;63554;48.940;12.050;2023-07-13T14:30:50;1.90;;;0.55;;
75007;SDS011;63554;48.940;12.050;2023-07-13T14:34:53;2.17;;;0.57;;
75007;SDS011;63554;48.940;12.050;2023-07-13T14:38:56;1.45;;;0.60;;
75007;SDS011;63554;48.940;12.050;2023-07-13T14:43:01;1.67;;;0.52;;
75007;SDS011;63554;48.940;12.050;2023-07-13T14:47:05;2.15;;;0.90;;
75007;SDS011;63554;48.940;12.050;2023-07-13T14:51:09;1.63;;;0.50;;
75007;SDS011;63554;48.940;12.050;2023-07-13T14:55:13;1.42;;;0.73;;
75007;SDS011;63554;48.940;12.050;2023-07-13T14:59:18;1.55;;;0.60;;
75007;SDS011;63554;48.940;12.050;2023-07-13T15:03:22;0.70;;;0.50;;
75007;SDS011;63554;48.940;12.050;2023-07-13T15:07:27;0.95;;;0.40;;
75007;SDS011;63554;48.940;12.050;2023-07-13T15:11:29;1.05;;;0.55;;
75007;SDS011;63554;48.940;12.050;2023-07-13T15:15:33;1.85;;;0.75;;
75007;SDS011;63554;48.940;12.050;2023-07-13T15:19:38;1.08;;;0.40;;
75007;SDS011;63554;48.940;12.050;2023-07-13T15:23:41;1.15;;;0.45;;
75007;SDS011;63554;48.940;12.050;2023-07-13T15:27:44;1.88;;;0.50;;
75007;SDS011;63554;48.940;12.050;2023-07-13T15:31:48;0.70;;;0.50;;
75007;SDS011;63554;48.940;12.050;2023-07-13T15:35:51;3.10;;;0.63;;
75007;SDS011;63554;48.940;12.050;2023-07-13T15:39:55;0.80;;;0.57;;
75007;SDS011;63554;48.940;12.050;2023-07-13T15:43:58;0.85;;;0.52;;
75007;SDS011;63554;48.940;12.050;2023-07-13T15:48:08;1.52;;;0.63;;
75007;SDS011;63554;48.940;12.050;2023-07-13T15:52:18;1.52;;;0.70;;
75007;SDS011;63554;48.940;12.050;2023-07-13T15:56:25;12.57;;;7.00;;
75007;SDS011;63554;48.940;12.050;2023-07-13T16:04:33;1.73;;;0.50;;
75007;SDS011;63554;48.940;12.050;2023-07-13T16:08:35;3.33;;;1.15;;
75007;SDS011;63554;48.940;12.050;2023-07-13T16:12:41;2.35;;;0.63;;
75007;SDS011;63554;48.940;12.050;2023-07-13T16:16:44;1.00;;;0.60;;
75007;SDS011;63554;48.940;12.050;2023-07-13T16:20:49;0.88;;;0.52;;
75007;SDS011;63554;48.940;12.050;2023-07-13T16:24:53;1.00;;;0.60;;
75007;SDS011;63554;48.940;12.050;2023-07-13T16:28:57;0.70;;;0.50;;
75007;SDS011;63554;48.940;12.050;2023-07-13T16:33:02;1.33;;;0.45;;
75007;SDS011;63554;48.940;12.050;2023-07-13T16:37:14;1.42;;;0.47;;
75007;SDS011;63554;48.940;12.050;2023-07-13T16:41:18;1.77;;;0.70;;
75007;SDS011;63554;48.940;12.050;2023-07-13T16:45:21;1.30;;;0.77;;
75007;SDS011;63554;48.940;12.050;2023-07-13T16:49:27;1.10;;;0.60;;
75007;SDS011;63554;48.940;12.050;2023-07-13T16:53:32;1.95;;;0.80;;
75007;SDS011;63554;48.940;12.050;2023-07-13T16:57:36;1.90;;;0.70;;
75007;SDS011;63554;48.940;12.050;2023-07-13T17:01:40;1.15;;;0.60;;
75007;SDS011;63554;48.940;12.050;2023-07-13T17:05:43;1.30;;;0.70;;
75007;SDS011;63554;48.940;12.050;2023-07-13T17:09:51;0.80;;;0.50;;
75007;SDS011;63554;48.940;12.050;2023-07-13T17:13:54;1.60;;;1.35;;
75007;SDS011;63554;48.940;12.050;2023-07-13T17:17:58;2.08;;;0.65;;
75007;SDS011;63554;48.940;12.050;2023-07-13T17:22:10;1.45;;;0.52;;
75007;SDS011;63554;48.940;12.050;2023-07-13T17:26:20;1.13;;;0.63;;
75007;SDS011;63554;48.940;12.050;2023-07-13T17:30:23;1.45;;;0.70;;
75007;SDS011;63554;48.940;12.050;2023-07-13T17:34:31;1.25;;;0.60;;
75007;SDS011;63554;48.940;12.050;2023-07-13T17:38:36;2.25;;;0.55;;
75007;SDS011;63554;48.940;12.050;2023-07-13T17:42:43;1.92;;;0.70;;
75007;SDS011;63554;48.940;12.050;2023-07-13T17:46:47;1.65;;;0.50;;
75007;SDS011;63554;48.940;12.050;2023-07-13T17:50:50;1.50;;;0.60;;
75007;SDS011;63554;48.940;12.050;2023-07-13T17:55:00;0.90;;;0.57;;
75007;SDS011;63554;48.940;12.050;2023-07-13T17:59:10;1.15;;;0.70;;
75007;SDS011;63554;48.940;12.050;2023-07-13T18:03:14;2.67;;;0.50;;
75007;SDS011;63554;48.940;12.050;2023-07-13T18:07:20;1.98;;;0.63;;
75007;SDS011;63554;48.940;12.050;2023-07-13T18:11:29;0.77;;;0.35;;
75007;SDS011;63554;48.940;12.050;2023-07-13T18:15:33;1.60;;;0.57;;
75007;SDS011;63554;48.940;12.050;2023-07-13T18:19:38;2.03;;;0.70;;
75007;SDS011;63554;48.940;12.050;2023-07-13T18:23:43;1.38;;;0.65;;
75007;SDS011;63554;48.940;12.050;2023-07-13T18:27:46;1.33;;;0.50;;
75007;SDS011;63554;48.940;12.050;2023-07-13T18:31:51;3.42;;;1.52;;
75007;SDS011;63554;48.940;12.050;2023-07-13T18:35:54;2.05;;;0.85;;
75007;SDS011;63554;48.940;12.050;2023-07-13T18:39:56;1.40;;;1.15;;
75007;SDS011;63554;48.940;12.050;2023-07-13T18:43:59;1.88;;;1.10;;
75007;SDS011;63554;48.940;12.050;2023-07-13T18:48:03;1.65;;;0.75;;
75007;SDS011;63554;48.940;12.050;2023-07-13T18:52:13;1.00;;;0.90;;
75007;SDS011;63554;48.940;12.050;2023-07-13T18:56:21;1.75;;;0.80;;
75007;SDS011;63554;48.940;12.050;2023-07-13T19:00:24;1.02;;;0.70;;
75007;SDS011;63554;48.940;12.050;2023-07-13T19:04:30;0.90;;;0.70;;
75007;SDS011;63554;48.940;12.050;2023-07-13T19:08:33;1.90;;;0.70;;
75007;SDS011;63554;48.940;12.050;2023-07-13T19:12:37;7.20;;;4.35;;
75007;SDS011;63554;48.940;12.050;2023-07-13T19:16:40;3.10;;;1.77;;
75007;SDS011;63554;48.940;12.050;2023-07-13T19:20:45;2.10;;;0.82;;
75007;SDS011;63554;48.940;12.050;2023-07-13T19:24:49;1.52;;;0.80;;
75007;SDS011;63554;48.940;12.050;2023-07-13T19:28:53;2.65;;;0.80;;
75007;SDS011;63554;48.940;12.050;2023-07-13T19:32:58;2.30;;;0.80;;
75007;SDS011;63554;48.940;12.050;2023-07-13T19:37:03;16.15;;;10.15;;
75007;SDS011;63554;48.940;12.050;2023-07-13T19:41:14;16.55;;;8.93;;
75007;SDS011;63554;48.940;12.050;2023-07-13T19:45:19;12.00;;;7.88;;
75007;SDS011;63554;48.940;12.050;2023-07-13T19:49:23;2.03;;;1.42;;
75007;SDS011;63554;48.940;12.050;2023-07-13T19:53:27;2.30;;;0.80;;
75007;SDS011;63554;48.940;12.050;2023-07-13T19:57:30;1.25;;;0.80;;
75007;SDS011;63554;48.940;12.050;2023-07-13T20:01:33;2.20;;;0.93;;
75007;SDS011;63554;48.940;12.050;2023-07-13T20:05:35;3.08;;;1.08;;
75007;SDS011;63554;48.940;12.050;2023-07-13T20:09:40;1.50;;;0.70;;
75007;SDS011;63554;48.940;12.050;2023-07-13T20:13:49;2.03;;;0.70;;
75007;SDS011;63554;48.940;12.050;2023-07-13T20:17:52;1.85;;;0.77;;
75007;SDS011;63554;48.940;12.050;2023-07-13T20:21:56;0.63;;;0.60;;
75007;SDS011;63554;48.940;12.050;2023-07-13T20:26:00;2.00;;;0.80;;
75007;SDS011;63554;48.940;12.050;2023-07-13T20:30:03;1.83;;;0.80;;
75007;SDS011;63554;48.940;12.050;2023-07-13T20:34:08;2.92;;;0.93;;
75007;SDS011;63554;48.940;12.050;2023-07-13T20:38:20;1.70;;;0.80;;
75007;SDS011;63554;48.940;12.050;2023-07-13T20:42:24;3.63;;;0.93;;
75007;SDS011;63554;48.940;12.050;2023-07-13T20:46:27;1.88;;;1.00;;
75007;SDS011;63554;48.940;12.050;2023-07-13T20:50:30;1.08;;;0.80;;
75007;SDS011;63554;48.940;12.050;2023-07-13T20:54:34;1.70;;;1.00;;
75007;SDS011;63554;48.940;12.050;2023-07-13T20:58:38;1.48;;;0.80;;
75007;SDS011;63554;48.940;12.050;2023-07-13T21:02:41;1.20;;;0.80;;
75007;SDS011;63554;48.940;12.050;2023-07-13T21:06:44;2.13;;;0.82;;
75007;SDS011;63554;48.940;12.050;2023-07-13T21:10:47;1.40;;;0.80;;
75007;SDS011;63554;48.940;12.050;2023-07-13T21:14:51;2.60;;;1.10;;
75007;SDS011;63554;48.940;12.050;2023-07-13T21:18:54;1.67;;;1.25;;
75007;SDS011;63554;48.940;12.050;2023-07-13T21:22:56;2.95;;;0.77;;
75007;SDS011;63554;48.940;12.050;2023-07-13T21:27:00;2.13;;;0.88;;
75007;SDS011;63554;48.940;12.050;2023-07-13T21:31:06;5.43;;;0.90;;
75007;SDS011;63554;48.940;12.050;2023-07-13T21:35:28;1.90;;;0.90;;
75007;SDS011;63554;48.940;12.050;2023-07-13T21:39:32;1.02;;;0.82;;
75007;SDS011;63554;48.940;12.050;2023-07-13T21:43:35;1.80;;;0.90;;
75007;SDS011;63554;48.940;12.050;2023-07-13T21:47:39;2.80;;;1.15;;
75007;SDS011;63554;48.940;12.050;2023-07-13T21:51:41;1.60;;;1.20;;
75007;SDS011;63554;48.940;12.050;2023-07-13T21:55:44;2.25;;;1.10;;
75007;SDS011;63554;48.940;12.050;2023-07-13T21:59:47;3.67;;;1.00;;
75007;SDS011;63554;48.940;12.050;2023-07-13T22:03:53;1.48;;;0.90;;
75007;SDS011;63554;48.940;12.050;2023-07-13T22:07:57;2.45;;;1.20;;
75007;SDS011;63554;48.940;12.050;2023-07-13T22:11:59;2.08;;;0.93;;
75007;SDS011;63554;48.940;12.050;2023-07-13T22:16:04;1.85;;;1.10;;
75007;SDS011;63554;48.940;12.050;2023-07-13T22:20:09;2.63;;;1.10;;
75007;SDS011;63554;48.940;12.050;2023-07-13T22:24:20;2.05;;;1.77;;
75007;SDS011;63554;48.940;12.050;2023-07-13T22:28:23;1.52;;;1.00;;
75007;SDS011;63554;48.940;12.050;2023-07-13T22:32:29;2.72;;;1.10;;
75007;SDS011;63554;48.940;12.050;2023-07-13T22:36:34;2.05;;;1.10;;
75007;SDS011;63554;48.940;12.050;2023-07-13T22:40:37;4.63;;;1.75;;
75007;SDS011;63554;48.940;12.050;2023-07-13T22:44:40;2.45;;;1.10;;
75007;SDS011;63554;48.940;12.050;2023-07-13T22:48:43;3.00;;;1.48;;
75007;SDS011;63554;48.940;12.050;2023-07-13T22:52:53;2.55;;;1.25;;
75007;SDS011;63554;48.940;12.050;2023-07-13T22:56:55;3.92;;;1.45;;
75007;SDS011;63554;48.940;12.050;2023-07-13T23:00:58;1.85;;;0.90;;
75007;SDS011;63554;48.940;12.050;2023-07-13T23:05:03;1.45;;;0.95;;
75007;SDS011;63554;48.940;12.050;2023-07-13T23:09:09;2.47;;;1.20;;
75007;SDS011;63554;48.940;12.050;2023-07-13T23:13:16;1.48;;;1.25;;
75007;SDS011;63554;48.940;12.050;2023-07-13T23:17:19;1.98;;;0.82;;
75007;SDS011;63554;48.940;12.050;2023-07-13T23:21:21;1.67;;;1.25;;
75007;SDS011;63554;48.940;12.050;2023-07-13T23:25:27;1.55;;;1.20;;
75007;SDS011;63554;48.940;12.050;2023-07-13T23:29:34;3.95;;;1.30;;
75007;SDS011;63554;48.940;12.050;2023-07-13T23:33:36;4.55;;;1.15;;
75007;SDS011;63554;48.940;12.050;2023-07-13T23:37:41;1.80;;;1.20;;
75007;SDS011;63554;48.940;12.050;2023-07-13T23:41:46;2.58;;;1.10;;
75007;SDS011;63554;48.940;12.050;2023-07-13T23:45:49;3.80;;;1.40;;
75007;SDS011;63554;48.940;12.050;2023-07-13T23:49:52;2.75;;;1.30;;
75007;SDS011;63554;48.940;12.050;2023-07-13T23:53:57;1.55;;;1.10;;
75007;SDS011;63554;48.940;12.050;2023-07-13T23:58:01;1.60;;;1.17;;
